Time;durP1;ratioP1;P1;durP2;ratioP2;P2;SDS_P1;SDS_P2;PMS_P1;PMS_P2;Temp;Humidity;BMP_temperature;BMP_pressure;BME280_temperature;BME280_humidity;BME280_pressure;Samples;Min_cycle;Max_cycle;Signal;HPM_P1;HPM_P2
2021/12/08 00:01:12;;;;;;;10.93;4.22;;;3.80;99.90;;;;;;4934737;29;20441;-75
2021/12/08 00:03:38;;;;;;;9.50;3.45;;;3.70;99.90;;;;;;4969157;28;20035;-75
2021/12/08 00:06:04;;;;;;;9.20;4.05;;;4.10;99.90;;;;;;4934276;29;20179;-74
2021/12/08 00:08:33;;;;;;;14.40;4.05;;;3.70;99.90;;;;;;4936089;29;20508;-74
2021/12/08 00:13:28;;;;;;;12.23;4.30;;;3.60;99.90;;;;;;4950145;28;20515;-74
2021/12/08 00:15:57;;;;;;;13.68;4.20;;;3.60;99.90;;;;;;4934305;29;20403;-74
2021/12/08 00:18:27;;;;;;;11.07;3.90;;;3.50;99.90;;;;;;4919239;29;20059;-74
2021/12/08 00:20:56;;;;;;;13.05;4.30;;;3.50;99.90;;;;;;4933780;29;20078;-74
2021/12/08 00:23:23;;;;;;;11.57;4.00;;;3.70;99.90;;;;;;4918866;29;20559;-74
2021/12/08 00:25:49;;;;;;;11.98;4.22;;;3.50;99.90;;;;;;4930121;29;20046;-74
2021/12/08 00:28:16;;;;;;;11.05;4.18;;;3.50;99.90;;;;;;4938531;28;20043;-74
2021/12/08 00:30:50;;;;;;;13.63;4.57;;;3.50;99.90;;;;;;4939351;29;20062;-75
2021/12/08 00:33:18;;;;;;;12.57;4.47;;;3.90;99.90;;;;;;4934067;29;20055;-75
2021/12/08 00:35:46;;;;;;;12.52;4.85;;;3.50;99.90;;;;;;4933945;29;20095;-75
2021/12/08 00:38:13;;;;;;;13.23;5.25;;;3.50;99.90;;;;;;4950588;28;20400;-76
2021/12/08 00:40:39;;;;;;;14.90;4.50;;;3.60;99.90;;;;;;4937161;29;20050;-76
2021/12/08 00:43:06;;;;;;;11.68;4.40;;;3.70;99.90;;;;;;4918561;29;20039;-76
2021/12/08 00:45:34;;;;;;;13.20;4.38;;;3.60;99.90;;;;;;4937103;28;20035;-76
2021/12/08 00:48:00;;;;;;;16.00;4.55;;;3.60;99.90;;;;;;4971951;28;20062;-76
2021/12/08 00:50:29;;;;;;;13.77;4.68;;;3.60;99.90;;;;;;4938033;28;20040;-76
2021/12/08 00:52:57;;;;;;;12.82;4.50;;;3.60;99.90;;;;;;4953271;28;20058;-76
2021/12/08 00:55:23;;;;;;;9.05;4.43;;;3.60;99.90;;;;;;4937764;28;20043;-76
2021/12/08 00:57:50;;;;;;;12.15;4.38;;;3.60;99.90;;;;;;4940126;28;20459;-76
2021/12/08 01:00:21;;;;;;;14.85;4.93;;;4.10;99.90;;;;;;4935308;29;20055;-76
2021/12/08 01:02:47;;;;;;;11.50;4.53;;;3.70;99.90;;;;;;4933759;29;20468;-75
2021/12/08 01:05:16;;;;;;;12.93;4.43;;;3.70;99.90;;;;;;4935064;29;20123;-75
2021/12/08 01:07:44;;;;;;;10.70;4.28;;;3.70;99.90;;;;;;4918418;29;20444;-75
2021/12/08 01:10:13;;;;;;;9.07;3.97;;;4.10;99.90;;;;;;4933669;29;20123;-75
2021/12/08 01:12:39;;;;;;;19.15;4.53;;;3.70;99.90;;;;;;4944868;28;20051;-75
2021/12/08 01:15:06;;;;;;;13.50;4.10;;;4.00;99.90;;;;;;4922728;28;20039;-76
2021/12/08 01:17:32;;;;;;;11.98;4.22;;;3.70;99.90;;;;;;4954216;28;20107;-76
2021/12/08 01:19:58;;;;;;;10.82;4.28;;;3.70;99.90;;;;;;4937312;29;20119;-76
2021/12/08 01:22:24;;;;;;;11.63;4.38;;;4.00;99.90;;;;;;4954015;28;20039;-76
2021/12/08 01:24:50;;;;;;;13.02;4.78;;;3.80;99.90;;;;;;4953007;29;20042;-75
2021/12/08 01:27:16;;;;;;;15.38;4.78;;;3.80;99.90;;;;;;4948299;29;20164;-75
2021/12/08 01:29:41;;;;;;;16.17;4.30;;;3.80;99.90;;;;;;4937163;29;20039;-75
2021/12/08 01:32:07;;;;;;;10.20;4.13;;;3.80;99.90;;;;;;4935429;29;20078;-75
2021/12/08 01:34:34;;;;;;;11.57;5.00;;;3.80;99.90;;;;;;4957033;28;20058;-75
2021/12/08 01:37:01;;;;;;;11.90;4.38;;;4.20;99.90;;;;;;4958221;28;20110;-74
2021/12/08 01:39:27;;;;;;;11.18;4.32;;;3.90;99.90;;;;;;4956663;28;20076;-74
2021/12/08 01:41:54;;;;;;;9.63;4.00;;;3.90;99.90;;;;;;4947478;29;20047;-74
2021/12/08 01:47:05;;;;;;;12.27;3.83;;;3.90;99.90;;;;;;4953014;28;20052;-75
2021/12/08 01:49:31;;;;;;;9.70;3.55;;;3.90;99.90;;;;;;4938656;29;20086;-75
2021/12/08 01:51:57;;;;;;;13.88;4.45;;;4.00;99.90;;;;;;4921085;29;20079;-75
2021/12/08 01:54:23;;;;;;;13.95;4.35;;;4.70;99.90;;;;;;4969492;28;20044;-75
2021/12/08 01:56:49;;;;;;;11.77;3.83;;;4.00;99.90;;;;;;4917238;29;20043;-75
2021/12/08 01:59:15;;;;;;;10.75;3.80;;;4.00;99.90;;;;;;4923677;29;20149;-75
2021/12/08 02:01:43;;;;;;;12.52;3.67;;;4.00;99.90;;;;;;4941295;29;20039;-75
2021/12/08 02:04:10;;;;;;;8.52;3.80;;;4.10;99.90;;;;;;4920930;29;20043;-76
2021/12/08 02:06:40;;;;;;;11.60;4.03;;;4.10;99.90;;;;;;4939189;28;20047;-76
2021/12/08 02:09:10;;;;;;;11.20;4.05;;;4.10;99.90;;;;;;4920895;29;20395;-76
2021/12/08 02:11:41;;;;;;;11.35;4.00;;;4.10;99.90;;;;;;4971152;28;20043;-76
2021/12/08 02:14:07;;;;;;;10.00;3.33;;;4.20;99.90;;;;;;4931679;29;20051;-76
2021/12/08 02:16:33;;;;;;;13.57;4.28;;;4.10;99.90;;;;;;4928200;28;20044;-76
2021/12/08 02:19:00;;;;;;;6.47;3.60;;;4.20;99.90;;;;;;4936377;29;20046;-75
2021/12/08 02:21:44;;;;;;;14.52;3.83;;;4.20;99.90;;;;;;4954281;29;20496;-75
2021/12/08 02:24:13;;;;;;;12.90;4.00;;;4.20;99.90;;;;;;4936241;29;20055;-75
2021/12/08 02:26:42;;;;;;;9.88;3.78;;;5.10;99.90;;;;;;4954945;29;20072;-75
2021/12/08 02:29:20;;;;;;;13.65;4.07;;;4.20;99.90;;;;;;4968388;28;20484;-75
2021/12/08 02:32:12;;;;;;;9.93;4.13;;;4.20;99.90;;;;;;4933907;29;20071;-75
2021/12/08 02:48:16;;;;;;;6.93;3.60;;;4.20;99.90;;;;;;4967505;28;20135;-76
2021/12/08 02:50:43;;;;;;;11.43;4.03;;;4.30;99.90;;;;;;4936649;29;20143;-76
2021/12/08 02:53:11;;;;;;;11.77;4.05;;;4.30;99.90;;;;;;4920271;29;20188;-76
2021/12/08 02:55:37;;;;;;;11.15;3.90;;;4.30;99.90;;;;;;4938052;29;20083;-75
2021/12/08 02:58:05;;;;;;;10.93;4.03;;;4.60;99.90;;;;;;4919877;29;20087;-75
2021/12/08 03:00:39;;;;;;;7.85;3.58;;;4.30;99.90;;;;;;4936271;28;20039;-75
2021/12/08 03:03:06;;;;;;;9.77;3.90;;;4.30;99.90;;;;;;4936997;29;20047;-75
2021/12/08 03:05:32;;;;;;;11.35;4.40;;;4.30;99.90;;;;;;4954141;28;20122;-75
2021/12/08 03:07:59;;;;;;;8.52;3.78;;;4.30;99.90;;;;;;4967416;28;20407;-76
2021/12/08 03:10:30;;;;;;;10.57;4.28;;;4.30;99.90;;;;;;4920236;29;20515;-76
2021/12/08 03:12:57;;;;;;;7.78;3.90;;;4.30;99.90;;;;;;4935202;29;20054;-76
2021/12/08 03:15:23;;;;;;;8.57;3.50;;;4.60;99.90;;;;;;4935837;29;20524;-76
2021/12/08 03:17:49;;;;;;;10.77;4.25;;;4.30;99.90;;;;;;4935248;29;20202;-76
2021/12/08 03:20:20;;;;;;;10.30;3.97;;;4.30;99.90;;;;;;4935264;29;20455;-76
2021/12/08 03:22:48;;;;;;;8.68;3.90;;;4.30;99.90;;;;;;4944127;29;20044;-76
2021/12/08 03:25:19;;;;;;;8.40;3.53;;;4.50;99.90;;;;;;4935165;29;20116;-76
2021/12/08 03:27:52;;;;;;;7.00;4.22;;;4.40;99.90;;;;;;4938270;29;20043;-76
2021/12/08 03:30:25;;;;;;;7.25;3.97;;;4.40;99.90;;;;;;4907378;28;20046;-76
2021/12/08 03:32:56;;;;;;;7.35;4.65;;;4.80;99.90;;;;;;4931294;29;20047;-76
2021/12/08 03:35:22;;;;;;;10.93;4.10;;;4.40;99.90;;;;;;4940765;28;20046;-76
2021/12/08 03:37:49;;;;;;;10.98;4.78;;;4.40;99.90;;;;;;4939724;28;20045;-76
2021/12/08 03:40:23;;;;;;;11.98;4.68;;;5.10;99.90;;;;;;4936880;29;20480;-76
2021/12/08 03:42:51;;;;;;;7.13;4.50;;;4.40;99.90;;;;;;4918970;29;20139;-76
2021/12/08 03:45:26;;;;;;;11.20;5.03;;;5.00;99.90;;;;;;4934770;29;20484;-76
2021/12/08 03:48:01;;;;;;;11.38;4.60;;;4.40;99.90;;;;;;4919204;29;20051;-76
2021/12/08 03:50:30;;;;;;;8.05;4.68;;;4.40;99.90;;;;;;4951875;29;20188;-76
2021/12/08 03:52:56;;;;;;;9.38;4.70;;;4.40;99.90;;;;;;4934541;29;20062;-76
2021/12/08 03:55:22;;;;;;;9.85;5.13;;;4.40;99.90;;;;;;4919742;29;20047;-76
2021/12/08 03:57:48;;;;;;;9.73;5.05;;;4.50;99.90;;;;;;4917816;29;20598;-76
2021/12/08 04:00:17;;;;;;;11.27;4.90;;;4.40;99.90;;;;;;4934455;29;20169;-76
2021/12/08 04:02:44;;;;;;;13.20;5.95;;;4.50;99.90;;;;;;4947994;29;20047;-76
2021/12/08 04:05:11;;;;;;;10.55;5.18;;;4.50;99.90;;;;;;4934244;29;20050;-76
2021/12/08 04:07:43;;;;;;;11.48;5.80;;;4.50;99.90;;;;;;4953878;28;20082;-76
2021/12/08 04:10:16;;;;;;;14.25;5.32;;;4.80;99.90;;;;;;4954807;28;20423;-76
2021/12/08 04:12:42;;;;;;;15.75;6.10;;;4.50;99.90;;;;;;4945614;29;20044;-76
2021/12/08 04:15:09;;;;;;;11.00;5.57;;;4.60;99.90;;;;;;4953539;28;20094;-78
2021/12/08 04:17:44;;;;;;;11.50;5.95;;;4.60;99.90;;;;;;4972946;28;20050;-77
2021/12/08 04:20:18;;;;;;;9.60;5.65;;;4.60;99.90;;;;;;4974053;28;20045;-76
2021/12/08 04:22:50;;;;;;;9.43;6.00;;;4.60;99.90;;;;;;4953079;29;20043;-76
2021/12/08 04:25:20;;;;;;;9.05;6.22;;;4.60;99.90;;;;;;4953379;29;20126;-76
2021/12/08 04:27:50;;;;;;;10.35;6.70;;;4.70;99.90;;;;;;4953070;28;20054;-76
2021/12/08 04:30:25;;;;;;;10.88;5.97;;;4.70;99.90;;;;;;4915155;29;20052;-76
2021/12/08 04:32:51;;;;;;;17.73;7.00;;;4.70;99.90;;;;;;4931006;29;20130;-76
2021/12/08 04:35:19;;;;;;;10.95;6.35;;;4.80;99.90;;;;;;4899450;29;20079;-76
2021/12/08 04:37:50;;;;;;;14.27;6.95;;;4.70;99.90;;;;;;4934969;29;20040;-76
2021/12/08 04:40:50;;;;;;;17.48;6.65;;;4.70;99.90;;;;;;4933856;29;20116;-76
2021/12/08 04:46:04;;;;;;;9.55;7.05;;;4.70;99.90;;;;;;4968330;28;20043;-76
2021/12/08 05:02:20;;;;;;;16.75;7.88;;;4.80;99.90;;;;;;4957876;28;20058;-76
2021/12/08 05:05:03;;;;;;;14.23;7.72;;;4.90;99.90;;;;;;4951240;29;20495;-76
2021/12/08 05:10:03;;;;;;;13.98;8.02;;;4.90;99.90;;;;;;4970233;28;20051;-76
2021/12/08 05:12:33;;;;;;;12.40;8.23;;;4.90;99.90;;;;;;4943376;29;20043;-76
2021/12/08 05:15:05;;;;;;;12.68;7.40;;;4.90;99.90;;;;;;4935330;29;20055;-76
2021/12/08 05:17:41;;;;;;;9.75;7.47;;;5.70;99.90;;;;;;4957125;28;20051;-76
2021/12/08 05:20:31;;;;;;;13.93;8.45;;;5.00;99.90;;;;;;4943146;28;20042;-76
2021/12/08 05:23:02;;;;;;;15.50;7.85;;;5.00;99.90;;;;;;4918533;29;20043;-76
2021/12/08 05:25:31;;;;;;;12.95;8.02;;;5.00;99.90;;;;;;4940294;29;20047;-76
2021/12/08 05:28:02;;;;;;;12.45;8.18;;;5.00;99.90;;;;;;4936916;29;20047;-76
2021/12/08 05:30:45;;;;;;;20.67;8.45;;;5.10;99.90;;;;;;4969984;28;20044;-76
2021/12/08 05:33:12;;;;;;;13.05;8.45;;;5.10;99.90;;;;;;4969183;28;20082;-77
2021/12/08 05:35:40;;;;;;;13.95;8.43;;;5.10;99.90;;;;;;4923752;29;20044;-77
2021/12/08 05:38:05;;;;;;;14.05;8.80;;;5.10;99.90;;;;;;4936978;29;20052;-77
2021/12/08 05:40:44;;;;;;;12.80;8.55;;;5.10;99.90;;;;;;4971087;28;20045;-77
2021/12/08 05:43:10;;;;;;;15.50;7.95;;;5.10;99.90;;;;;;4935689;29;20043;-77
2021/12/08 05:45:38;;;;;;;13.13;8.45;;;5.20;99.90;;;;;;4918991;29;20040;-77
2021/12/08 05:48:04;;;;;;;12.60;8.70;;;5.20;99.90;;;;;;4917989;29;20055;-77
2021/12/08 05:50:44;;;;;;;11.32;7.95;;;5.20;99.90;;;;;;4935242;29;20119;-77
2021/12/08 05:53:10;;;;;;;15.73;8.40;;;5.20;99.90;;;;;;4936635;29;20488;-77
2021/12/08 05:55:37;;;;;;;12.30;7.97;;;6.00;99.90;;;;;;4942267;28;20109;-76
2021/12/08 05:58:04;;;;;;;16.08;7.88;;;5.50;99.90;;;;;;4947258;28;20054;-76
2021/12/08 06:00:38;;;;;;;12.85;7.90;;;5.30;99.90;;;;;;4956410;28;20122;-76
2021/12/08 06:03:04;;;;;;;17.85;8.60;;;5.30;99.90;;;;;;4954453;29;20078;-76
2021/12/08 06:05:31;;;;;;;13.77;7.95;;;5.40;99.90;;;;;;4957345;28;20079;-76
2021/12/08 06:07:58;;;;;;;12.25;7.80;;;5.40;99.90;;;;;;4942946;28;20043;-76
2021/12/08 06:10:31;;;;;;;17.83;7.57;;;5.90;99.90;;;;;;4940824;28;20110;-76
2021/12/08 06:12:57;;;;;;;12.73;7.85;;;5.40;99.90;;;;;;4955862;28;20447;-76
2021/12/08 06:15:23;;;;;;;11.75;7.68;;;5.40;99.90;;;;;;4950246;29;20082;-76
2021/12/08 06:17:51;;;;;;;14.07;7.43;;;5.40;99.90;;;;;;4934558;29;20083;-76
2021/12/08 06:20:18;;;;;;;13.68;7.82;;;5.40;99.90;;;;;;4935824;29;20042;-76
2021/12/08 06:22:46;;;;;;;14.18;8.00;;;5.50;99.90;;;;;;4923632;29;20102;-76
2021/12/08 06:25:14;;;;;;;12.82;8.00;;;5.50;99.90;;;;;;4923516;29;20039;-76
2021/12/08 06:27:40;;;;;;;12.75;7.70;;;5.50;99.90;;;;;;4954948;29;20522;-78
2021/12/08 06:30:10;;;;;;;14.00;8.07;;;5.50;99.90;;;;;;4960913;28;20051;-78
2021/12/08 06:32:35;;;;;;;11.52;7.97;;;5.50;99.90;;;;;;4957615;28;20063;-77
2021/12/08 06:35:03;;;;;;;12.07;7.68;;;5.50;99.90;;;;;;4936025;29;20050;-76
2021/12/08 06:37:34;;;;;;;12.38;7.75;;;5.50;99.90;;;;;;4937594;29;20508;-77
2021/12/08 06:40:20;;;;;;;15.75;7.72;;;5.50;99.90;;;;;;4957885;28;20039;-78
2021/12/08 06:42:48;;;;;;;14.93;7.30;;;5.50;99.90;;;;;;4938797;29;20530;-78
2021/12/08 06:45:21;;;;;;;13.95;7.53;;;6.20;99.90;;;;;;4955814;28;20075;-78
2021/12/08 06:47:49;;;;;;;12.93;7.82;;;5.50;99.90;;;;;;4921246;29;20055;-80
2021/12/08 06:50:25;;;;;;;12.07;7.55;;;5.50;99.90;;;;;;4928565;29;20046;-80
2021/12/08 06:52:52;;;;;;;13.80;7.70;;;6.00;99.90;;;;;;4939271;29;20844;-79
2021/12/08 06:55:22;;;;;;;16.80;6.80;;;5.60;99.90;;;;;;4940850;29;20456;-79
2021/12/08 06:58:03;;;;;;;15.35;6.80;;;5.30;99.90;;;;;;4936523;29;20040;-80
2021/12/08 07:00:47;;;;;;;15.43;6.75;;;5.60;99.90;;;;;;4938447;29;20039;-79
2021/12/08 07:06:10;;;;;;;13.15;6.88;;;5.50;99.90;;;;;;4932562;29;20048;-83
2021/12/08 07:08:49;;;;;;;8.43;6.20;;;6.20;99.90;;;;;;4908172;29;20484;-80
2021/12/08 07:11:19;;;;;;;11.38;6.50;;;5.50;99.90;;;;;;4920505;29;20366;-79
2021/12/08 07:13:59;;;;;;;11.48;6.35;;;5.90;99.90;;;;;;4935816;29;20039;-77
2021/12/08 07:16:32;;;;;;;13.23;6.50;;;5.40;99.90;;;;;;4955450;28;20047;-76
2021/12/08 07:19:10;;;;;;;11.88;6.60;;;5.50;99.90;;;;;;4935616;29;20452;-77
2021/12/08 07:21:41;;;;;;;10.65;6.38;;;5.50;99.90;;;;;;4933775;29;20083;-77
2021/12/08 07:24:19;;;;;;;11.38;5.85;;;5.50;99.90;;;;;;4935281;29;20055;-77
2021/12/08 07:26:47;;;;;;;12.52;6.30;;;5.50;99.90;;;;;;4935013;29;20082;-76
2021/12/08 07:29:16;;;;;;;9.77;5.50;;;5.70;99.90;;;;;;4934401;28;20047;-77
2021/12/08 07:31:47;;;;;;;11.02;5.75;;;5.70;99.90;;;;;;4934430;29;20186;-76
2021/12/08 07:34:18;;;;;;;12.75;5.72;;;5.40;99.90;;;;;;4948871;29;20055;-76
2021/12/08 07:36:47;;;;;;;10.80;5.82;;;5.40;99.90;;;;;;4952094;28;20074;-76
2021/12/08 07:39:17;;;;;;;9.18;5.68;;;6.20;99.90;;;;;;4916492;29;20094;-77
2021/12/08 07:41:49;;;;;;;10.13;5.10;;;5.40;99.90;;;;;;4916144;29;20109;-76
2021/12/08 07:44:16;;;;;;;12.77;5.63;;;5.40;99.90;;;;;;4944601;28;20108;-73
2021/12/08 07:46:59;;;;;;;14.02;5.25;;;5.40;99.90;;;;;;4950257;28;20039;-73
2021/12/08 07:49:30;;;;;;;11.10;4.95;;;5.40;99.90;;;;;;4931712;29;20083;-73
2021/12/08 07:52:10;;;;;;;9.35;4.90;;;5.60;99.90;;;;;;4931279;29;20075;-75
2021/12/08 07:54:36;;;;;;;9.23;4.97;;;5.30;99.90;;;;;;4936723;28;20105;-74
2021/12/08 07:57:10;;;;;;;9.30;5.00;;;5.40;99.90;;;;;;4901176;29;20035;-74
2021/12/08 07:59:39;;;;;;;9.65;4.35;;;5.50;99.90;;;;;;4915256;29;20048;-77
2021/12/08 08:02:06;;;;;;;10.75;4.40;;;5.40;99.90;;;;;;4924282;29;20041;-78
2021/12/08 08:04:38;;;;;;;11.20;3.72;;;5.80;99.90;;;;;;4916921;29;20044;-78
2021/12/08 08:07:05;;;;;;;10.75;4.07;;;5.40;99.90;;;;;;4914859;29;20086;-78
2021/12/08 08:09:38;;;;;;;13.52;3.50;;;5.50;99.90;;;;;;4916449;29;20058;-78
2021/12/08 08:12:07;;;;;;;10.88;3.88;;;5.30;99.90;;;;;;4930772;29;20058;-77
2021/12/08 08:14:39;;;;;;;8.25;3.50;;;5.30;99.90;;;;;;4949411;28;20116;-77
2021/12/08 08:17:18;;;;;;;14.85;3.65;;;5.30;99.90;;;;;;4914807;29;20514;-77
2021/12/08 08:19:46;;;;;;;10.52;3.28;;;5.30;99.90;;;;;;4936850;28;20043;-78
2021/12/08 08:22:17;;;;;;;11.30;3.63;;;5.40;99.90;;;;;;4934044;29;20839;-78
2021/12/08 08:24:43;;;;;;;8.73;3.38;;;5.40;99.90;;;;;;4925471;29;20043;-79
2021/12/08 08:27:11;;;;;;;10.10;3.22;;;5.40;99.90;;;;;;4934381;28;20055;-78
2021/12/08 08:29:38;;;;;;;12.05;3.55;;;5.60;99.90;;;;;;4934274;29;20392;-78
2021/12/08 08:32:19;;;;;;;18.80;3.60;;;5.40;99.90;;;;;;4898556;29;20422;-78
2021/12/08 08:34:48;;;;;;;11.25;3.50;;;5.70;99.90;;;;;;4930860;29;20059;-78
2021/12/08 08:37:15;;;;;;;67.90;5.25;;;5.50;99.90;;;;;;4914024;29;20098;-78
2021/12/08 08:39:53;;;;;;;32.22;4.40;;;5.50;99.90;;;;;;4917428;29;20089;-78
2021/12/08 08:42:35;;;;;;;13.02;3.60;;;5.50;99.90;;;;;;4914485;29;20043;-78
2021/12/08 08:45:25;;;;;;;150.32;9.10;;;5.50;99.90;;;;;;4912538;29;20451;-78
2021/12/08 08:48:14;;;;;;;14.10;3.53;;;5.50;99.90;;;;;;4944371;28;20123;-78
2021/12/08 08:51:03;;;;;;;50.10;5.55;;;5.60;99.90;;;;;;4963281;28;20047;-78
2021/12/08 08:53:32;;;;;;;15.88;3.53;;;5.60;99.90;;;;;;4937576;28;20142;-79
2021/12/08 08:56:12;;;;;;;16.10;3.53;;;5.70;99.90;;;;;;4914456;29;20102;-79
2021/12/08 08:58:43;;;;;;;23.80;4.00;;;5.60;99.90;;;;;;4933637;29;20050;-79
2021/12/08 09:01:23;;;;;;;9.77;2.63;;;5.60;99.90;;;;;;4929306;29;20051;-79
2021/12/08 09:03:55;;;;;;;10.13;2.80;;;6.00;99.90;;;;;;4916877;29;20051;-75
2021/12/08 09:06:44;;;;;;;10.10;3.00;;;5.70;99.90;;;;;;4912311;29;20069;-78
2021/12/08 09:09:34;;;;;;;8.85;3.08;;;5.70;99.90;;;;;;4945905;29;20036;-79
2021/12/08 09:12:17;;;;;;;9.70;2.92;;;5.90;99.90;;;;;;4932792;29;20043;-78
2021/12/08 09:14:54;;;;;;;13.18;3.22;;;5.80;99.90;;;;;;4928069;29;20397;-78
2021/12/08 09:17:28;;;;;;;10.55;2.75;;;5.80;99.90;;;;;;4911988;29;20078;-78
2021/12/08 09:20:01;;;;;;;9.23;2.35;;;5.90;99.90;;;;;;4929911;29;20035;-78
2021/12/08 09:22:42;;;;;;;9.02;2.40;;;5.90;99.90;;;;;;4946366;28;20079;-77
2021/12/08 09:25:21;;;;;;;8.98;2.40;;;5.80;99.90;;;;;;4920572;29;20078;-77
2021/12/08 09:27:51;;;;;;;15.20;2.85;;;5.90;99.90;;;;;;4929797;29;20506;-77
2021/12/08 09:30:19;;;;;;;11.20;2.83;;;5.90;99.90;;;;;;4929844;29;20043;-77
2021/12/08 09:32:58;;;;;;;14.43;2.80;;;5.90;99.90;;;;;;4932622;29;20062;-77
2021/12/08 09:35:40;;;;;;;9.55;2.55;;;6.00;99.90;;;;;;4932885;29;20054;-77
2021/12/08 09:38:15;;;;;;;10.75;2.47;;;5.90;99.90;;;;;;4929407;29;20412;-77
2021/12/08 09:41:16;;;;;;;9.82;2.70;;;5.90;99.90;;;;;;4929150;29;20180;-77
2021/12/08 09:43:52;;;;;;;11.93;2.78;;;5.90;99.90;;;;;;4917422;29;20122;-77
2021/12/08 09:46:34;;;;;;;11.07;2.47;;;6.00;99.90;;;;;;4950377;29;20452;-77
2021/12/08 09:49:02;;;;;;;9.95;2.63;;;6.00;99.90;;;;;;4949872;29;20035;-77
2021/12/08 09:51:29;;;;;;;10.75;3.38;;;5.90;99.90;;;;;;4963481;28;20044;-77
2021/12/08 09:53:58;;;;;;;11.70;2.55;;;6.00;99.90;;;;;;4917290;29;20086;-77
2021/12/08 09:56:25;;;;;;;14.60;3.22;;;5.90;99.90;;;;;;4933916;29;20091;-77
2021/12/08 09:58:53;;;;;;;17.48;3.40;;;6.00;99.90;;;;;;4935277;29;20121;-77
2021/12/08 10:01:21;;;;;;;13.60;2.95;;;6.00;99.90;;;;;;4933708;29;20032;-77
2021/12/08 10:03:49;;;;;;;11.20;3.20;;;6.00;99.90;;;;;;4930146;29;20376;-78
2021/12/08 10:06:15;;;;;;;11.20;2.90;;;6.10;99.90;;;;;;4917279;29;20464;-78
2021/12/08 10:08:43;;;;;;;10.80;2.78;;;6.00;99.90;;;;;;4917364;29;20512;-80
2021/12/08 10:11:10;;;;;;;10.45;3.05;;;6.00;99.90;;;;;;4949723;28;20039;-75
2021/12/08 10:13:36;;;;;;;12.10;2.83;;;6.00;99.90;;;;;;4950532;29;20036;-78
2021/12/08 10:16:02;;;;;;;12.95;3.38;;;6.10;99.90;;;;;;4933446;29;21426;-76
2021/12/08 10:18:28;;;;;;;10.32;2.50;;;6.00;99.90;;;;;;4919779;29;20608;-77
2021/12/08 10:20:55;;;;;;;13.07;2.78;;;6.20;99.90;;;;;;4931053;29;20039;-76
2021/12/08 10:23:32;;;;;;;10.02;2.53;;;6.20;99.90;;;;;;4955571;29;20439;-76
2021/12/08 10:26:09;;;;;;;9.80;2.40;;;6.20;99.90;;;;;;4936333;29;20046;-76
2021/12/08 10:28:50;;;;;;;14.93;3.08;;;6.20;99.90;;;;;;4938983;29;20401;-76
2021/12/08 10:31:28;;;;;;;11.90;2.72;;;6.30;99.90;;;;;;4936098;29;20111;-76
2021/12/08 10:36:54;;;;;;;13.50;2.80;;;6.30;99.90;;;;;;4943185;29;20067;-76
2021/12/08 10:39:33;;;;;;;11.40;2.63;;;6.30;99.90;;;;;;4951629;29;20122;-76
2021/12/08 10:42:08;;;;;;;16.65;3.22;;;6.30;99.90;;;;;;4920070;29;20095;-77
2021/12/08 10:44:45;;;;;;;9.68;2.42;;;6.30;99.90;;;;;;4954417;29;20296;-77
2021/12/08 10:47:16;;;;;;;14.18;2.55;;;6.30;99.90;;;;;;4920029;29;20036;-77
2021/12/08 10:54:57;;;;;;;12.52;2.95;;;6.30;99.90;;;;;;4954227;28;20052;-77
2021/12/08 10:57:27;;;;;;;8.98;2.90;;;6.40;99.90;;;;;;4968516;28;20126;-77
2021/12/08 11:00:17;;;;;;;14.40;2.78;;;6.40;99.90;;;;;;4956002;28;20047;-77
2021/12/08 11:02:52;;;;;;;14.68;2.95;;;6.40;99.90;;;;;;4931182;29;20047;-77
2021/12/08 11:05:23;;;;;;;12.57;3.05;;;6.50;99.90;;;;;;4922298;29;20043;-77
2021/12/08 11:08:09;;;;;;;15.00;2.75;;;6.50;99.90;;;;;;4935542;29;20061;-77
2021/12/08 11:10:46;;;;;;;10.18;2.60;;;6.50;99.90;;;;;;4918464;29;20039;-77
2021/12/08 11:13:13;;;;;;;10.73;2.67;;;6.60;99.90;;;;;;4919684;29;20047;-78
2021/12/08 11:15:43;;;;;;;13.60;3.92;;;7.10;99.90;;;;;;4954876;28;20389;-78
2021/12/08 11:18:17;;;;;;;10.05;2.63;;;6.60;99.90;;;;;;4935243;29;20051;-77
2021/12/08 11:20:50;;;;;;;14.80;2.73;;;6.60;99.90;;;;;;4951043;29;20048;-77
2021/12/08 11:23:28;;;;;;;11.18;2.50;;;6.70;99.90;;;;;;4934965;29;20068;-76
2021/12/08 11:25:56;;;;;;;12.27;2.58;;;6.60;99.90;;;;;;4943117;29;20833;-75
2021/12/08 11:28:25;;;;;;;16.17;3.10;;;6.80;99.90;;;;;;4930248;29;20043;-76
2021/12/08 11:30:52;;;;;;;13.68;3.05;;;6.70;99.90;;;;;;4915169;29;20093;-76
2021/12/08 11:33:23;;;;;;;10.65;2.92;;;6.80;99.90;;;;;;4916187;29;20066;-76
2021/12/08 11:36:13;;;;;;;13.43;3.28;;;6.70;99.90;;;;;;4915811;29;20080;-76
2021/12/08 11:38:40;;;;;;;11.75;2.67;;;6.80;99.90;;;;;;4923294;29;20077;-73
2021/12/08 11:41:21;;;;;;;15.45;2.75;;;7.00;99.90;;;;;;4949289;29;20043;-73
2021/12/08 11:43:51;;;;;;;9.27;2.30;;;6.90;99.90;;;;;;4934648;28;20046;-73
2021/12/08 11:46:18;;;;;;;14.15;2.78;;;6.80;99.90;;;;;;4935253;29;20488;-78
2021/12/08 11:49:03;;;;;;;12.40;2.80;;;6.80;99.90;;;;;;4951790;29;20122;-78
2021/12/08 11:51:35;;;;;;;11.77;2.83;;;6.90;99.90;;;;;;4935828;29;20047;-77
2021/12/08 11:54:01;;;;;;;8.57;3.03;;;6.90;99.90;;;;;;4931665;29;20071;-78
2021/12/08 11:56:39;;;;;;;10.05;2.50;;;6.90;99.90;;;;;;4915402;29;20047;-77
2021/12/08 11:59:07;;;;;;;10.93;2.80;;;6.90;99.90;;;;;;4929144;29;20043;-78
2021/12/08 12:01:34;;;;;;;12.48;3.17;;;7.00;99.90;;;;;;4934536;29;20078;-78
2021/12/08 12:04:00;;;;;;;11.43;3.20;;;7.00;99.90;;;;;;4930803;29;20114;-78
2021/12/08 12:06:28;;;;;;;11.30;2.63;;;7.00;99.90;;;;;;4931143;29;20079;-78
2021/12/08 12:08:59;;;;;;;16.05;2.55;;;6.90;99.90;;;;;;4918353;28;20047;-78
2021/12/08 12:11:26;;;;;;;12.30;2.97;;;6.90;99.90;;;;;;4951433;29;20047;-78
2021/12/08 12:13:55;;;;;;;8.77;2.45;;;6.90;99.90;;;;;;4932369;29;20062;-78
2021/12/08 12:16:21;;;;;;;12.57;2.80;;;6.90;99.90;;;;;;4914637;29;20563;-78
2021/12/08 12:18:47;;;;;;;13.50;2.75;;;6.90;99.90;;;;;;4935715;29;20503;-78
2021/12/08 12:21:13;;;;;;;9.85;2.67;;;6.90;99.90;;;;;;4914365;29;20043;-78
2021/12/08 12:24:06;;;;;;;11.95;2.80;;;6.90;99.90;;;;;;4949362;28;20491;-78
2021/12/08 12:26:40;;;;;;;11.90;2.78;;;6.90;99.90;;;;;;4915796;29;20107;-78
2021/12/08 12:29:48;;;;;;;13.10;2.60;;;6.90;99.90;;;;;;4930493;29;20051;-77
2021/12/08 12:32:22;;;;;;;;;;;6.90;99.90;;;;;;4889259;29;20055;-77
2021/12/08 12:34:53;;;;;;;13.27;3.15;;;6.90;99.90;;;;;;4926643;29;19989;-78
2021/12/08 12:37:29;;;;;;;9.95;2.35;;;7.00;99.90;;;;;;4949480;29;20042;-77
2021/12/08 12:39:57;;;;;;;13.02;3.05;;;6.90;99.90;;;;;;4929746;29;20048;-78
2021/12/08 12:42:24;;;;;;;20.63;3.40;;;6.90;99.90;;;;;;4914496;29;20047;-77
2021/12/08 12:45:01;;;;;;;9.23;2.63;;;6.90;99.90;;;;;;4917109;29;20103;-78
2021/12/08 12:47:29;;;;;;;17.63;3.50;;;7.10;99.90;;;;;;4914224;29;20519;-78
2021/12/08 12:50:09;;;;;;;8.82;2.88;;;6.90;99.90;;;;;;4933612;29;20087;-78
2021/12/08 12:52:41;;;;;;;9.13;2.90;;;6.80;99.90;;;;;;4932983;29;20134;-78
2021/12/08 12:55:44;;;;;;;13.43;3.25;;;6.80;99.90;;;;;;4914311;29;20044;-78
2021/12/08 12:58:12;;;;;;;12.85;2.83;;;6.90;99.90;;;;;;4920669;29;20062;-77
2021/12/08 13:00:43;;;;;;;11.50;2.72;;;7.40;99.90;;;;;;4932638;29;20066;-78
2021/12/08 13:03:43;;;;;;;10.82;2.88;;;6.80;99.90;;;;;;4914649;29;20063;-77
2021/12/08 13:06:12;;;;;;;12.43;2.90;;;6.80;99.90;;;;;;4932560;29;20403;-77
2021/12/08 13:08:48;;;;;;;9.55;3.00;;;6.80;99.90;;;;;;4922527;29;20047;-77
2021/12/08 13:11:45;;;;;;;11.07;2.85;;;6.90;99.90;;;;;;4936757;29;20568;-78
2021/12/08 13:14:21;;;;;;;;;;;6.90;99.90;;;;;;4934775;29;20387;-78
2021/12/08 13:17:05;;;;;;;10.95;2.97;;;6.90;99.90;;;;;;4932103;29;20370;-79
2021/12/08 13:19:48;;;;;;;10.23;2.70;;;6.80;99.90;;;;;;4916547;29;20046;-79
2021/12/08 13:22:53;;;;;;;9.32;2.60;;;6.90;99.90;;;;;;4933825;29;20127;-79
2021/12/08 13:25:24;;;;;;;15.57;3.53;;;6.80;99.90;;;;;;4951063;29;20058;-79
2021/12/08 13:28:11;;;;;;;12.43;2.90;;;6.90;99.90;;;;;;4918412;29;20396;-79
2021/12/08 13:30:52;;;;;;;10.93;2.95;;;6.90;99.90;;;;;;4955789;28;20051;-79
2021/12/08 13:33:25;;;;;;;9.23;2.90;;;6.90;99.90;;;;;;4937227;29;20563;-79
2021/12/08 13:35:53;;;;;;;9.07;2.75;;;6.90;99.90;;;;;;4936183;29;20185;-79
2021/12/08 13:38:19;;;;;;;10.20;2.70;;;6.90;99.90;;;;;;4937320;29;20103;-79
2021/12/08 13:40:49;;;;;;;13.52;4.20;;;7.20;99.90;;;;;;4952760;29;20054;-79
2021/12/08 13:43:32;;;;;;;14.40;2.67;;;6.80;99.90;;;;;;4953253;28;20044;-79
2021/12/08 13:45:58;;;;;;;11.43;2.60;;;7.10;99.90;;;;;;4952864;29;20082;-79
2021/12/08 13:48:24;;;;;;;12.15;2.90;;;6.80;99.90;;;;;;4937839;29;20039;-79
2021/12/08 13:50:54;;;;;;;9.18;2.88;;;7.30;99.90;;;;;;4955750;28;20035;-78
2021/12/08 13:53:20;;;;;;;7.90;2.30;;;7.00;99.90;;;;;;4920282;29;20037;-78
2021/12/08 13:55:53;;;;;;;13.45;3.30;;;6.90;99.90;;;;;;4936790;29;20076;-78
2021/12/08 13:58:20;;;;;;;8.38;3.17;;;7.00;99.90;;;;;;4954139;28;20043;-78
2021/12/08 14:00:55;;;;;;;8.25;2.50;;;7.00;99.90;;;;;;4936693;29;20048;-78
2021/12/08 14:03:36;;;;;;;11.02;2.65;;;7.00;99.90;;;;;;4936951;29;20071;-79